EICK 200200Z 20009KT 170V260 9999 SCT007 SCT021 11/10 Q1014 NOSIG EICK 200130Z 19011KT 9999 BKN007 SCT013 BKN031 11/10 Q1015 NOSIG EICK 200100Z 18009KT 9999 BKN007 11/10 Q1015 NOSIG EICK 200030Z 19010KT 160V220 9999 BKN006 SCT013 11/10 Q1015 NOSIG EICK 200000Z 18010KT 9999 BKN007 SCT017 11/10 Q1015 NOSIG EICK 192330Z 19009KT 9999 BKN005 SCT012 11/10 Q1016 NOSIG EICK 192300Z 19009KT 9999 BKN004 SCT013 11/10 Q1016 NOSIG EICK 192230Z 19009KT 9999 BKN005 SCT012 11/10 Q1016 NOSIG EICK 192200Z 19009KT 9999 BKN005 SCT017 11/10 Q1016 NOSIG EICK 192130Z 19008KT 9999 SCT005 SCT017 BKN180 10/10 Q1016 NOSIG EICK 192100Z 19008KT 9999 BKN006 SCT017 BKN200 11/10 Q1016 NOSIG EICK 192030Z 19009KT 9999 BKN007 SCT017 11/10 Q1016 NOSIG EICK 192000Z 20012KT 9999 FEW011 SCT017 12/10 Q1016 NOSIG EICK 191930Z 20012KT 9999 FEW010 SCT015 12/10 Q1016 NOSIG EICK 191900Z 19013KT 9999 BKN011 BKN017 12/10 Q1016 NOSIG EICK 191830Z 19013KT 9999 SCT011 BKN015 13/10 Q1016 NOSIG EICK 191800Z 19013KT 9999 SCT011 BKN016 12/10 Q1016 NOSIG EICK 191730Z 19013G24KT 9999 FEW012 BKN016 13/10 Q1016 NOSIG EICK 191700Z 19014KT 9999 SCT012 BKN016 13/10 Q1016 NOSIG EICK 191630Z 20016KT 9999 FEW012 BKN018 13/10 Q1016 NOSIG EICK 191600Z 20016KT 9999 FEW012 BKN016 13/09 Q1016 NOSIG EICK 191530Z 19016KT 9999 BKN018 13/09 Q1016 NOSIG EICK 191500Z 19017G29KT 9999 BKN017 13/09 Q1016 NOSIG EICK 191430Z 19016G28KT 9999 BKN018 13/09 Q1016 NOSIG EICK 191400Z 19017KT 9999 BKN017 14/08 Q1016 NOSIG EICK 191330Z 19016KT 9999 BKN018 14/08 Q1016 NOSIG EICK 191300Z 19018KT 9999 BKN018 14/10 Q1016 NOSIG EICK 191230Z 19016KT 9999 BKN018 14/09 Q1016 NOSIG EICK 191200Z 19018KT 9999 BKN018 14/09 Q1016 NOSIG EICK 191130Z 18016KT 9999 BKN018 14/09 Q1016 NOSIG EICK 191100Z 19015KT 9999 BKN017 14/10 Q1016 NOSIG EICK 191030Z 20016KT 9999 BKN017 13/10 Q1016 NOSIG EICK 191000Z 20017G29KT 9999 BKN017 13/09 Q1015 NOSIG EICK 190930Z 20014KT 9999 BKN020 12/09 Q1015 NOSIG EICK 190900Z 20017KT 9999 FEW012 BKN018 12/09 Q1015 NOSIG EICK 190830Z 20016G27KT 9999 BKN016 12/09 Q1015 NOSIG EICK 190800Z 19012KT 9999 BKN016 12/09 Q1015 NOSIG EICK 190730Z 19012KT 9999 FEW012 BKN016 11/09 Q1015 NOSIG EICK 190700Z 19011KT 9999 BKN016 11/09 Q1015 NOSIG EICK 190630Z 20008KT 9999 FEW014 10/09 Q1015 NOSIG EICK 190600Z 19006KT 9999 FEW014 09/08 Q1014 NOSIG EICK 190530Z 18006KT 140V210 9999 FEW017 09/07 Q1014 NOSIG EICK 190500Z 20004KT 130V240 9999 SCT017 08/07 Q1014 NOSIG EICK 190430Z 20005KT 9999 FEW016 SCT020 07/06 Q1014 NOSIG EICK 190400Z 21006KT 9999 FEW022 07/06 Q1014 NOSIG EICK 190330Z 20006KT 9999 FEW022 07/06 Q1014 NOSIG EICK 190300Z 20007KT 9999 FEW022 07/06 Q1014 NOSIG EICK 190230Z 21007KT 9999 FEW021 07/06 Q1014 NOSIG EICK 190200Z 21007KT 9999 FEW025 07/06 Q1014 NOSIG EICK 190130Z 21006KT 9999 FEW025 07/06 Q1013 NOSIG EICK 190100Z 21006KT 9999 FEW028 07/06 Q1013 NOSIG EICK 190030Z 21007KT 9999 FEW026 08/06 Q1013 NOSIG EICK 190000Z 21009KT 9999 FEW020 08/07 Q1013 NOSIG EICK 182330Z 21008KT 9999 FEW020 08/07 Q1013 NOSIG EICK 182300Z 22006KT 9999 FEW020 07/06 Q1013 NOSIG EICK 182230Z 22007KT 9999 FEW019 08/06 Q1013 NOSIG EICK 182200Z 22007KT 9999 FEW019 08/06 Q1012 NOSIG EICK 182130Z 23007KT 9999 FEW018 08/06 Q1012 NOSIG EICK 182100Z 22009KT 9999 FEW018 08/06 Q1012 NOSIG EICK 182030Z 23009KT 9999 FEW018 09/07 Q1010 NOSIG EICK 182000Z 24011KT 9999 FEW017 10/07 Q1010 NOSIG EICK 181930Z 23016KT 9999 FEW015 FEW018CB SCT022 11/08 Q1009 NOSIG EICK 181900Z 22020KT 9999 SCT016 FEW018CB SCT025 11/08 Q1008 NOSIG EICK 181830Z 21023KT 9999 SCT013 FEW018CB SCT028 11/09 Q1009 NOSIG EICK 181800Z 20017G28KT 9999 SCT013 FEW018CB SCT028 12/10 Q1007 NOSIG EICK 181730Z 20019G29KT 9999 SCT013 SCT016 BKN028 12/10 Q1007 NOSIG EICK 181700Z 19016KT 9999 SCT013 BKN038 12/10 Q1007 NOSIG EICK 181630Z 19015KT 9999 FEW015 BKN040 BKN060 11/09 Q1007 NOSIG EICK 181600Z 20017KT 9999 SCT006 BKN030 BKN070 12/10 Q1007 NOSIG EICK 181530Z 16023G35KT 6000 -RA BKN006 12/11 Q1006 TEMPO SHRA EICK 181500Z 16021KT 9000 -RA BKN007 12/12 Q1007 TEMPO SHRA EICK 181430Z 16021KT 9999 -RA BKN008 12/11 Q1007 TEMPO SHRA

METAR Messwerte "CORK ARPT/CORCAI" EICK

Zurück zur Übersicht

Ortsname
Ländercode / m ü. NN
Zeit Temperatur Taupunkt Rel.
Luftfeuchte
Luftdruck:
Altimeter
NN
Station
Wind in Beaufort
(Knoten)
Sichtweite
(Meter)
Wolken
(Meter über Grund)
Wettererscheinung
CORK ARPT/CORCAI
IE 158
Fr 20.05. 04:00111094 %1014
1014
995
SSW 3 (9)
S - W
>= 10000Wolkig (640)
Wolkig (210)
 
CORK ARPT/CORCAI
IE 158
Fr 20.05. 03:30111094 %1015
1015
996
S 4 (11)>= 10000Stark bewölkt (940)
Wolkig (400)
Stark bewölkt (210)
 
CORK ARPT/CORCAI
IE 158
Fr 20.05. 03:00111094 %1015
1015
996
S 3 (9)>= 10000Stark bewölkt (210) 
CORK ARPT/CORCAI
IE 158
Fr 20.05. 02:30111094 %1015
1015
996
S 3 (10)
SSO - SW
>= 10000Wolkig (400)
Stark bewölkt (180)
 
CORK ARPT/CORCAI
IE 158
Fr 20.05. 02:00111094 %1015
1015
996
S 3 (10)>= 10000Wolkig (520)
Stark bewölkt (210)
 
CORK ARPT/CORCAI
IE 158
Fr 20.05. 01:30111094 %1016
1016
997
S 3 (9)>= 10000Wolkig (370)
Stark bewölkt (150)
 
CORK ARPT/CORCAI
IE 158
Fr 20.05. 01:00111094 %1016
1016
997
S 3 (9)>= 10000Wolkig (400)
Stark bewölkt (120)
 
CORK ARPT/CORCAI
IE 158
Fr 20.05. 00:30111094 %1016
1016
997
S 3 (9)>= 10000Wolkig (370)
Stark bewölkt (150)
 
CORK ARPT/CORCAI
IE 158
Fr 20.05. 00:00111094 %1016
1016
997
S 3 (9)>= 10000Wolkig (520)
Stark bewölkt (150)
 
CORK ARPT/CORCAI
IE 158
Do 19.05. 23:301010100 %1016
1016
997
S 3 (8)>= 10000Stark bewölkt (5500)
Wolkig (520)
Wolkig (150)
 
CORK ARPT/CORCAI
IE 158
Do 19.05. 23:00111094 %1016
1016
997
S 3 (8)>= 10000Stark bewölkt (6100)
Wolkig (520)
Stark bewölkt (180)
 
CORK ARPT/CORCAI
IE 158
Do 19.05. 22:30111094 %1016
1016
997
S 3 (9)>= 10000Wolkig (520)
Stark bewölkt (210)
 
CORK ARPT/CORCAI
IE 158
Do 19.05. 22:00121088 %1016
1016
997
SSW 4 (12)>= 10000Wolkig (520)
Leicht bewölkt (340)
 
CORK ARPT/CORCAI
IE 158
Do 19.05. 21:30121088 %1016
1016
997
SSW 4 (12)>= 10000Wolkig (460)
Leicht bewölkt (300)
 
CORK ARPT/CORCAI
IE 158
Do 19.05. 21:00121088 %1016
1016
997
S 4 (13)>= 10000Stark bewölkt (520)
Stark bewölkt (340)
 
CORK ARPT/CORCAI
IE 158
Do 19.05. 20:30131082 %1016
1016
997
S 4 (13)>= 10000Stark bewölkt (460)
Wolkig (340)
 
CORK ARPT/CORCAI
IE 158
Do 19.05. 20:00121088 %1016
1016
997
S 4 (13)>= 10000Stark bewölkt (490)
Wolkig (340)
 
CORK ARPT/CORCAI
IE 158
Do 19.05. 19:30131082 %1016
1016
997
S 4 (13) - 6 (24)>= 10000Stark bewölkt (490)
Leicht bewölkt (370)
 
CORK ARPT/CORCAI
IE 158
Do 19.05. 19:00131082 %1016
1016
997
S 4 (14)>= 10000Stark bewölkt (490)
Wolkig (370)
 
CORK ARPT/CORCAI
IE 158
Do 19.05. 18:30131082 %1016
1016
997
SSW 5 (16)>= 10000Stark bewölkt (550)
Leicht bewölkt (370)
 
CORK ARPT/CORCAI
IE 158
Do 19.05. 18:0013977 %1016
1016
997
SSW 5 (16)>= 10000Stark bewölkt (490)
Leicht bewölkt (370)
 
CORK ARPT/CORCAI
IE 158
Do 19.05. 17:3013977 %1016
1016
997
S 5 (16)>= 10000Stark bewölkt (550) 
CORK ARPT/CORCAI
IE 158
Do 19.05. 17:0013977 %1016
1016
997
S 5 (17) - 7 (29)>= 10000Stark bewölkt (520) 
CORK ARPT/CORCAI
IE 158
Do 19.05. 16:3013977 %1016
1016
997
S 5 (16) - 7 (28)>= 10000Stark bewölkt (550) 
CORK ARPT/CORCAI
IE 158
Do 19.05. 16:0014867 %1016
1016
997
S 5 (17)>= 10000Stark bewölkt (520) 
CORK ARPT/CORCAI
IE 158
Do 19.05. 15:3014867 %1016
1016
997
S 5 (16)>= 10000Stark bewölkt (550) 
CORK ARPT/CORCAI
IE 158
Do 19.05. 15:00141077 %1016
1016
997
S 5 (18)>= 10000Stark bewölkt (550) 
CORK ARPT/CORCAI
IE 158
Do 19.05. 14:3014972 %1016
1016
997
S 5 (16)>= 10000Stark bewölkt (550) 
CORK ARPT/CORCAI
IE 158
Do 19.05. 14:0014972 %1016
1016
997
S 5 (18)>= 10000Stark bewölkt (550) 
CORK ARPT/CORCAI
IE 158
Do 19.05. 13:3014972 %1016
1016
997
S 5 (16)>= 10000Stark bewölkt (550) 
CORK ARPT/CORCAI
IE 158
Do 19.05. 13:00141077 %1016
1016
997
S 4 (15)>= 10000Stark bewölkt (520) 
CORK ARPT/CORCAI
IE 158
Do 19.05. 12:30131082 %1016
1016
997
SSW 5 (16)>= 10000Stark bewölkt (520) 
CORK ARPT/CORCAI
IE 158
Do 19.05. 12:0013977 %1015
1015
996
SSW 5 (17) - 7 (29)>= 10000Stark bewölkt (520) 
CORK ARPT/CORCAI
IE 158
Do 19.05. 11:3012982 %1015
1015
996
SSW 4 (14)>= 10000Stark bewölkt (610) 
CORK ARPT/CORCAI
IE 158
Do 19.05. 11:0012982 %1015
1015
996
SSW 5 (17)>= 10000Stark bewölkt (550)
Leicht bewölkt (370)
 
CORK ARPT/CORCAI
IE 158
Do 19.05. 10:3012982 %1015
1015
996
SSW 5 (16) - 7 (27)>= 10000Stark bewölkt (490) 
CORK ARPT/CORCAI
IE 158
Do 19.05. 10:0012982 %1015
1015
996
S 4 (12)>= 10000Stark bewölkt (490) 
CORK ARPT/CORCAI
IE 158
Do 19.05. 09:3011987 %1015
1015
996
S 4 (12)>= 10000Stark bewölkt (490)
Leicht bewölkt (370)
 
CORK ARPT/CORCAI
IE 158
Do 19.05. 09:0011987 %1015
1015
996
S 4 (11)>= 10000Stark bewölkt (490) 
CORK ARPT/CORCAI
IE 158
Do 19.05. 08:3010993 %1015
1015
996
SSW 3 (8)>= 10000Leicht bewölkt (430) 
CORK ARPT/CORCAI
IE 158
Do 19.05. 08:009893 %1014
1014
995
S 2 (6)>= 10000Leicht bewölkt (430) 
CORK ARPT/CORCAI
IE 158
Do 19.05. 07:309787 %1014
1014
995
S 2 (6)
SO - SSW
>= 10000Leicht bewölkt (520) 
CORK ARPT/CORCAI
IE 158
Do 19.05. 07:008793 %1014
1014
995
SSW 2 (4)
SO - WSW
>= 10000Wolkig (520) 
CORK ARPT/CORCAI
IE 158
Do 19.05. 06:307693 %1014
1015
995
SSW 2 (5)>= 10000Wolkig (610)
Leicht bewölkt (490)
 
CORK ARPT/CORCAI
IE 158
Do 19.05. 06:007693 %1014
1015
995
SSW 2 (6)>= 10000Leicht bewölkt (670) 
CORK ARPT/CORCAI
IE 158
Do 19.05. 05:307693 %1014
1015
995
SSW 2 (6)>= 10000Leicht bewölkt (670) 
CORK ARPT/CORCAI
IE 158
Do 19.05. 05:007693 %1014
1015
995
SSW 3 (7)>= 10000Leicht bewölkt (670) 
CORK ARPT/CORCAI
IE 158
Do 19.05. 04:307693 %1014
1015
995
SSW 3 (7)>= 10000Leicht bewölkt (640) 
CORK ARPT/CORCAI
IE 158
Do 19.05. 04:007693 %1014
1015
995
SSW 3 (7)>= 10000Leicht bewölkt (760) 
CORK ARPT/CORCAI
IE 158
Do 19.05. 03:307693 %1013
1014
994
SSW 2 (6)>= 10000Leicht bewölkt (760) 
CORK ARPT/CORCAI
IE 158
Do 19.05. 03:007693 %1013
1014
994
SSW 2 (6)>= 10000Leicht bewölkt (850) 
CORK ARPT/CORCAI
IE 158
Do 19.05. 02:308687 %1013
1013
994
SSW 3 (7)>= 10000Leicht bewölkt (790) 
CORK ARPT/CORCAI
IE 158
Do 19.05. 02:008793 %1013
1013
994
SSW 3 (9)>= 10000Leicht bewölkt (610) 
CORK ARPT/CORCAI
IE 158
Do 19.05. 01:308793 %1013
1013
994
SSW 3 (8)>= 10000Leicht bewölkt (610) 
CORK ARPT/CORCAI
IE 158
Do 19.05. 01:007693 %1013
1014
994
SW 2 (6)>= 10000Leicht bewölkt (610) 
CORK ARPT/CORCAI
IE 158
Do 19.05. 00:308687 %1013
1013
994
SW 3 (7)>= 10000Leicht bewölkt (580) 
CORK ARPT/CORCAI
IE 158
Do 19.05. 00:008687 %1012
1012
993
SW 3 (7)>= 10000Leicht bewölkt (580) 
CORK ARPT/CORCAI
IE 158
Mi 18.05. 23:308687 %1012
1012
993
SW 3 (7)>= 10000Leicht bewölkt (550) 
CORK ARPT/CORCAI
IE 158
Mi 18.05. 23:008687 %1012
1012
993
SW 3 (9)>= 10000Leicht bewölkt (550) 
CORK ARPT/CORCAI
IE 158
Mi 18.05. 22:309787 %1010
1010
991
SW 3 (9)>= 10000Leicht bewölkt (550) 
CORK ARPT/CORCAI
IE 158
Mi 18.05. 22:0010782 %1010
1010
991
WSW 4 (11)>= 10000Leicht bewölkt (520) 
CORK ARPT/CORCAI
IE 158
Mi 18.05. 21:3011882 %1009
1009
990
SW 5 (16)>= 10000Wolkig (670)
Leicht bewölkt Cb (550)
Leicht bewölkt (460)
 
CORK ARPT/CORCAI
IE 158
Mi 18.05. 21:0011882 %1008
1008
989
SW 5 (20)>= 10000Wolkig (760)
Leicht bewölkt Cb (550)
Wolkig (490)
 
CORK ARPT/CORCAI
IE 158
Mi 18.05. 20:3011987 %1009
1009
990
SSW 6 (23)>= 10000Wolkig (850)
Leicht bewölkt Cb (550)
Wolkig (400)
 
CORK ARPT/CORCAI
IE 158
Mi 18.05. 20:00121088 %1007
1007
988
SSW 5 (17) - 7 (28)>= 10000Wolkig (850)
Leicht bewölkt Cb (550)
Wolkig (400)
 
CORK ARPT/CORCAI
IE 158
Mi 18.05. 19:30121088 %1007
1007
988
SSW 5 (19) - 7 (29)>= 10000Stark bewölkt (850)
Wolkig (490)
Wolkig (400)
 
CORK ARPT/CORCAI
IE 158
Mi 18.05. 19:00121088 %1007
1007
988
S 5 (16)>= 10000Stark bewölkt (1200)
Wolkig (400)
 
CORK ARPT/CORCAI
IE 158
Mi 18.05. 18:3011987 %1007
1007
988
S 4 (15)>= 10000Stark bewölkt (1800)
Stark bewölkt (1200)
Leicht bewölkt (460)
 
CORK ARPT/CORCAI
IE 158
Mi 18.05. 18:00121088 %1007
1007
988
SSW 5 (17)>= 10000Stark bewölkt (2100)
Stark bewölkt (910)
Wolkig (180)
 
CORK ARPT/CORCAI
IE 158
Mi 18.05. 17:30121194 %1006
1006
987
SSO 6 (23) - 8 (35)6000Stark bewölkt (180)Regen (schwach)
Bald zeitweise: Regen-Schauer
CORK ARPT/CORCAI
IE 158
Mi 18.05. 17:001212100 %1007
1007
988
SSO 6 (21)9000Stark bewölkt (210)Regen (schwach)
Bald zeitweise: Regen-Schauer
CORK ARPT/CORCAI
IE 158
Mi 18.05. 16:30121194 %1007
1007
988
SSO 6 (21)>= 10000Stark bewölkt (240)Regen (schwach)
Bald zeitweise: Regen-Schauer

Altimeter: Einstellung am Altimeter (Höhenmesser), die Höhe 0 muss auf diesen Luftdruckwert zeigen, damit das Gerät die Stationshöhe richtig anzeigt.

NN: Luftdruck reduziert auf "Normal Null", auf Meereshöhe, dieser von der Temperatur abhängige Wert wird bisweilen unkorrekt einfach als "Luftdruck" bezeichnet. Eigentlich nur eine fiktive Größe, die es erlaubt, Stationen auf unterschiedlichen Höhen miteinander zu vergleichen.

Station: Realer Luftdruck an der Station.